sensor_id;sensor_type;location;lat;lon;timestamp;temperature;humidity
69324;DHT22;56470;47.350;8.718;2024-01-25T00:00:52;11.99;82.21
69324;DHT22;56470;47.350;8.718;2024-01-25T00:03:17;12.02;82.35
69324;DHT22;56470;47.350;8.718;2024-01-25T00:05:45;12.04;82.05
69324;DHT22;56470;47.350;8.718;2024-01-25T00:08:10;12.06;82.11
69324;DHT22;56470;47.350;8.718;2024-01-25T00:10:36;12.02;82.23
69324;DHT22;56470;47.350;8.718;2024-01-25T00:13:01;12.02;81.98
69324;DHT22;56470;47.350;8.718;2024-01-25T00:15:27;12.02;81.84
69324;DHT22;56470;47.350;8.718;2024-01-25T00:18:09;12.01;81.68
69324;DHT22;56470;47.350;8.718;2024-01-25T00:20:37;11.97;81.51
69324;DHT22;56470;47.350;8.718;2024-01-25T00:23:02;11.91;81.30
69324;DHT22;56470;47.350;8.718;2024-01-25T00:25:28;11.89;81.44
69324;DHT22;56470;47.350;8.718;2024-01-25T00:27:56;11.85;81.34
69324;DHT22;56470;47.350;8.718;2024-01-25T00:30:22;11.85;81.17
69324;DHT22;56470;47.350;8.718;2024-01-25T00:32:48;11.87;81.21
69324;DHT22;56470;47.350;8.718;2024-01-25T00:35:14;11.88;81.10
69324;DHT22;56470;47.350;8.718;2024-01-25T00:37:40;11.87;81.15
69324;DHT22;56470;47.350;8.718;2024-01-25T00:40:06;11.85;80.94
69324;DHT22;56470;47.350;8.718;2024-01-25T00:42:37;11.80;81.10
69324;DHT22;56470;47.350;8.718;2024-01-25T00:45:04;11.84;81.13
69324;DHT22;56470;47.350;8.718;2024-01-25T00:47:30;11.84;81.04
69324;DHT22;56470;47.350;8.718;2024-01-25T00:49:56;11.85;80.96
69324;DHT22;56470;47.350;8.718;2024-01-25T00:52:22;11.84;80.88
69324;DHT22;56470;47.350;8.718;2024-01-25T00:54:47;11.82;80.87
69324;DHT22;56470;47.350;8.718;2024-01-25T00:57:13;11.75;81.10
69324;DHT22;56470;47.350;8.718;2024-01-25T00:59:39;11.78;81.12
69324;DHT22;56470;47.350;8.718;2024-01-25T01:02:07;11.78;81.25
69324;DHT22;56470;47.350;8.718;2024-01-25T01:04:43;11.84;81.15
69324;DHT22;56470;47.350;8.718;2024-01-25T01:07:09;11.82;81.12
69324;DHT22;56470;47.350;8.718;2024-01-25T01:09:34;11.81;81.05
69324;DHT22;56470;47.350;8.718;2024-01-25T01:12:00;11.78;81.13
69324;DHT22;56470;47.350;8.718;2024-01-25T01:14:25;11.80;81.20
69324;DHT22;56470;47.350;8.718;2024-01-25T01:16:53;11.75;81.23
69324;DHT22;56470;47.350;8.718;2024-01-25T01:19:21;11.74;81.26
69324;DHT22;56470;47.350;8.718;2024-01-25T01:21:46;11.71;81.40
69324;DHT22;56470;47.350;8.718;2024-01-25T01:24:12;11.73;81.44
69324;DHT22;56470;47.350;8.718;2024-01-25T01:26:40;11.74;81.41
69324;DHT22;56470;47.350;8.718;2024-01-25T01:29:07;11.77;81.43
69324;DHT22;56470;47.350;8.718;2024-01-25T01:31:33;11.75;81.47
69324;DHT22;56470;47.350;8.718;2024-01-25T01:33:58;11.77;81.55
69324;DHT22;56470;47.350;8.718;2024-01-25T01:36:26;11.74;81.55
69324;DHT22;56470;47.350;8.718;2024-01-25T01:38:52;11.73;81.73
69324;DHT22;56470;47.350;8.718;2024-01-25T01:41:17;11.73;81.74
69324;DHT22;56470;47.350;8.718;2024-01-25T01:44:18;11.73;82.46
69324;DHT22;56470;47.350;8.718;2024-01-25T01:46:48;11.74;81.75
69324;DHT22;56470;47.350;8.718;2024-01-25T01:49:14;11.70;81.81
69324;DHT22;56470;47.350;8.718;2024-01-25T01:51:40;11.71;81.97
69324;DHT22;56470;47.350;8.718;2024-01-25T01:54:07;11.69;82.01
69324;DHT22;56470;47.350;8.718;2024-01-25T01:56:33;11.69;81.96
69324;DHT22;56470;47.350;8.718;2024-01-25T01:59:00;11.69;81.92
69324;DHT22;56470;47.350;8.718;2024-01-25T02:01:26;11.70;82.03
69324;DHT22;56470;47.350;8.718;2024-01-25T02:03:52;11.66;82.11
69324;DHT22;56470;47.350;8.718;2024-01-25T02:06:18;11.71;82.01
69324;DHT22;56470;47.350;8.718;2024-01-25T02:08:43;11.75;81.99
69324;DHT22;56470;47.350;8.718;2024-01-25T02:11:11;11.73;81.84
69324;DHT22;56470;47.350;8.718;2024-01-25T02:13:37;11.69;82.06
69324;DHT22;56470;47.350;8.718;2024-01-25T02:16:04;11.67;82.26
69324;DHT22;56470;47.350;8.718;2024-01-25T02:18:30;11.70;82.14
69324;DHT22;56470;47.350;8.718;2024-01-25T02:20:55;11.60;81.74
69324;DHT22;56470;47.350;8.718;2024-01-25T02:23:20;11.52;82.20
69324;DHT22;56470;47.350;8.718;2024-01-25T02:25:46;11.50;82.33
69324;DHT22;56470;47.350;8.718;2024-01-25T02:28:13;11.52;82.65
69324;DHT22;56470;47.350;8.718;2024-01-25T02:30:39;11.53;82.54
69324;DHT22;56470;47.350;8.718;2024-01-25T02:33:04;11.54;82.68
69324;DHT22;56470;47.350;8.718;2024-01-25T02:35:30;11.56;82.76
69324;DHT22;56470;47.350;8.718;2024-01-25T02:37:58;11.60;82.72
69324;DHT22;56470;47.350;8.718;2024-01-25T02:40:24;11.63;82.80
69324;DHT22;56470;47.350;8.718;2024-01-25T02:42:49;11.61;82.79
69324;DHT22;56470;47.350;8.718;2024-01-25T02:45:15;11.66;82.61
69324;DHT22;56470;47.350;8.718;2024-01-25T02:47:40;11.64;82.68
69324;DHT22;56470;47.350;8.718;2024-01-25T02:50:06;11.63;82.60
69324;DHT22;56470;47.350;8.718;2024-01-25T02:52:31;11.63;82.65
69324;DHT22;56470;47.350;8.718;2024-01-25T02:54:57;11.60;82.56
69324;DHT22;56470;47.350;8.718;2024-01-25T02:57:22;11.57;82.51
69324;DHT22;56470;47.350;8.718;2024-01-25T02:59:48;11.47;82.99
69324;DHT22;56470;47.350;8.718;2024-01-25T03:02:13;11.39;83.10
69324;DHT22;56470;47.350;8.718;2024-01-25T03:04:39;11.27;83.38
69324;DHT22;56470;47.350;8.718;2024-01-25T03:07:04;11.23;83.68
69324;DHT22;56470;47.350;8.718;2024-01-25T03:09:32;11.18;83.92
69324;DHT22;56470;47.350;8.718;2024-01-25T03:12:00;11.11;84.02
69324;DHT22;56470;47.350;8.718;2024-01-25T03:14:25;11.09;83.28
69324;DHT22;56470;47.350;8.718;2024-01-25T03:16:50;11.05;83.40
69324;DHT22;56470;47.350;8.718;2024-01-25T03:19:16;10.99;84.40
69324;DHT22;56470;47.350;8.718;2024-01-25T03:21:41;10.99;84.35
69324;DHT22;56470;47.350;8.718;2024-01-25T03:24:07;10.98;84.74
69324;DHT22;56470;47.350;8.718;2024-01-25T03:26:32;11.05;84.56
69324;DHT22;56470;47.350;8.718;2024-01-25T03:28:57;11.14;84.81
69324;DHT22;56470;47.350;8.718;2024-01-25T03:31:23;11.19;85.01
69324;DHT22;56470;47.350;8.718;2024-01-25T03:33:48;11.27;84.57
69324;DHT22;56470;47.350;8.718;2024-01-25T03:36:14;11.36;84.55
69324;DHT22;56470;47.350;8.718;2024-01-25T03:38:42;11.40;84.46
69324;DHT22;56470;47.350;8.718;2024-01-25T03:41:08;11.43;84.31
69324;DHT22;56470;47.350;8.718;2024-01-25T03:43:34;11.49;84.15
69324;DHT22;56470;47.350;8.718;2024-01-25T03:46:00;11.56;84.08
69324;DHT22;56470;47.350;8.718;2024-01-25T03:48:26;11.54;84.07
69324;DHT22;56470;47.350;8.718;2024-01-25T03:50:51;11.56;84.03
69324;DHT22;56470;47.350;8.718;2024-01-25T03:53:16;11.57;83.99
69324;DHT22;56470;47.350;8.718;2024-01-25T03:55:42;11.56;83.99
69324;DHT22;56470;47.350;8.718;2024-01-25T03:58:10;11.56;84.02
69324;DHT22;56470;47.350;8.718;2024-01-25T04:00:35;11.59;83.94
69324;DHT22;56470;47.350;8.718;2024-01-25T04:03:00;11.57;84.04
69324;DHT22;56470;47.350;8.718;2024-01-25T04:05:26;11.59;84.01
69324;DHT22;56470;47.350;8.718;2024-01-25T04:07:51;11.57;84.03
69324;DHT22;56470;47.350;8.718;2024-01-25T04:10:17;11.57;84.02
69324;DHT22;56470;47.350;8.718;2024-01-25T04:12:42;11.59;84.08
69324;DHT22;56470;47.350;8.718;2024-01-25T04:15:08;11.63;83.99
69324;DHT22;56470;47.350;8.718;2024-01-25T04:17:34;11.63;83.88
69324;DHT22;56470;47.350;8.718;2024-01-25T04:20:00;11.61;83.97
69324;DHT22;56470;47.350;8.718;2024-01-25T04:22:25;11.63;83.91
69324;DHT22;56470;47.350;8.718;2024-01-25T04:24:50;11.64;83.94
69324;DHT22;56470;47.350;8.718;2024-01-25T04:27:16;11.69;83.91
69324;DHT22;56470;47.350;8.718;2024-01-25T04:29:42;11.70;83.81
69324;DHT22;56470;47.350;8.718;2024-01-25T04:32:08;11.69;83.70
69324;DHT22;56470;47.350;8.718;2024-01-25T04:34:34;11.71;83.77
69324;DHT22;56470;47.350;8.718;2024-01-25T04:37:00;11.71;83.61
69324;DHT22;56470;47.350;8.718;2024-01-25T04:39:25;11.70;83.61
69324;DHT22;56470;47.350;8.718;2024-01-25T04:41:50;11.69;83.76
69324;DHT22;56470;47.350;8.718;2024-01-25T04:44:16;11.69;83.78
69324;DHT22;56470;47.350;8.718;2024-01-25T04:46:42;11.71;83.73
69324;DHT22;56470;47.350;8.718;2024-01-25T04:49:07;11.74;83.67
69324;DHT22;56470;47.350;8.718;2024-01-25T04:51:32;11.74;83.59
69324;DHT22;56470;47.350;8.718;2024-01-25T04:53:58;11.71;83.49
69324;DHT22;56470;47.350;8.718;2024-01-25T04:56:23;11.69;83.54
69324;DHT22;56470;47.350;8.718;2024-01-25T04:58:49;11.64;83.87
69324;DHT22;56470;47.350;8.718;2024-01-25T05:01:14;11.56;83.97
69324;DHT22;56470;47.350;8.718;2024-01-25T05:03:39;11.54;83.74
69324;DHT22;56470;47.350;8.718;2024-01-25T05:06:05;11.53;83.87
69324;DHT22;56470;47.350;8.718;2024-01-25T05:08:30;11.54;83.77
69324;DHT22;56470;47.350;8.718;2024-01-25T05:10:56;11.54;84.11
69324;DHT22;56470;47.350;8.718;2024-01-25T05:13:22;11.54;84.15
69324;DHT22;56470;47.350;8.718;2024-01-25T05:15:47;11.52;84.46
69324;DHT22;56470;47.350;8.718;2024-01-25T05:18:12;11.50;84.39
69324;DHT22;56470;47.350;8.718;2024-01-25T05:20:38;11.54;84.23
69324;DHT22;56470;47.350;8.718;2024-01-25T05:23:04;11.57;83.92
69324;DHT22;56470;47.350;8.718;2024-01-25T05:25:30;11.60;84.07
69324;DHT22;56470;47.350;8.718;2024-01-25T05:27:56;11.61;84.07
69324;DHT22;56470;47.350;8.718;2024-01-25T05:30:22;11.66;84.05
69324;DHT22;56470;47.350;8.718;2024-01-25T05:32:48;11.66;84.06
69324;DHT22;56470;47.350;8.718;2024-01-25T05:35:16;11.67;83.97
69324;DHT22;56470;47.350;8.718;2024-01-25T05:37:42;11.70;83.96
69324;DHT22;56470;47.350;8.718;2024-01-25T05:40:08;11.75;83.83
69324;DHT22;56470;47.350;8.718;2024-01-25T05:42:35;11.78;83.83
69324;DHT22;56470;47.350;8.718;2024-01-25T05:51:37;11.80;83.55
69324;DHT22;56470;47.350;8.718;2024-01-25T05:54:02;11.81;83.61
69324;DHT22;56470;47.350;8.718;2024-01-25T05:59:59;11.81;83.55
69324;DHT22;56470;47.350;8.718;2024-01-25T06:02:24;11.82;83.63
69324;DHT22;56470;47.350;8.718;2024-01-25T06:04:59;11.84;83.54
69324;DHT22;56470;47.350;8.718;2024-01-25T06:07:53;11.82;83.67
69324;DHT22;56470;47.350;8.718;2024-01-25T06:10:47;11.80;83.43
69324;DHT22;56470;47.350;8.718;2024-01-25T06:13:32;11.78;83.73
69324;DHT22;56470;47.350;8.718;2024-01-25T06:16:11;11.78;83.65
69324;DHT22;56470;47.350;8.718;2024-01-25T06:18:44;11.80;83.61
69324;DHT22;56470;47.350;8.718;2024-01-25T06:21:31;11.77;83.59
69324;DHT22;56470;47.350;8.718;2024-01-25T06:24:05;11.77;83.72
69324;DHT22;56470;47.350;8.718;2024-01-25T06:26:47;11.74;83.83
69324;DHT22;56470;47.350;8.718;2024-01-25T06:29:25;11.69;83.80
69324;DHT22;56470;47.350;8.718;2024-01-25T06:34:47;11.67;83.88
69324;DHT22;56470;47.350;8.718;2024-01-25T06:37:15;11.67;84.06
69324;DHT22;56470;47.350;8.718;2024-01-25T06:39:52;11.64;84.12
69324;DHT22;56470;47.350;8.718;2024-01-25T06:45:39;11.64;83.99
69324;DHT22;56470;47.350;8.718;2024-01-25T06:48:07;11.66;84.08
69324;DHT22;56470;47.350;8.718;2024-01-25T06:50:34;11.70;84.05
69324;DHT22;56470;47.350;8.718;2024-01-25T06:52:59;11.69;84.11
69324;DHT22;56470;47.350;8.718;2024-01-25T06:55:24;11.70;84.12
69324;DHT22;56470;47.350;8.718;2024-01-25T06:57:50;11.70;84.07
69324;DHT22;56470;47.350;8.718;2024-01-25T07:00:15;11.73;84.13
69324;DHT22;56470;47.350;8.718;2024-01-25T07:02:41;11.73;84.05
69324;DHT22;56470;47.350;8.718;2024-01-25T07:05:08;11.75;84.09
69324;DHT22;56470;47.350;8.718;2024-01-25T07:07:33;11.73;84.14
69324;DHT22;56470;47.350;8.718;2024-01-25T07:09:59;11.71;84.23
69324;DHT22;56470;47.350;8.718;2024-01-25T07:12:24;11.67;84.30
69324;DHT22;56470;47.350;8.718;2024-01-25T07:14:49;11.67;84.32
69324;DHT22;56470;47.350;8.718;2024-01-25T07:17:15;11.67;84.42
69324;DHT22;56470;47.350;8.718;2024-01-25T07:19:40;11.69;84.34
69324;DHT22;56470;47.350;8.718;2024-01-25T07:22:05;11.70;83.86
69324;DHT22;56470;47.350;8.718;2024-01-25T07:24:31;11.64;84.40
69324;DHT22;56470;47.350;8.718;2024-01-25T07:26:56;11.60;84.57
69324;DHT22;56470;47.350;8.718;2024-01-25T07:29:22;11.57;84.81
69324;DHT22;56470;47.350;8.718;2024-01-25T07:31:47;11.54;84.95
69324;DHT22;56470;47.350;8.718;2024-01-25T07:34:13;11.56;84.40
69324;DHT22;56470;47.350;8.718;2024-01-25T07:36:38;11.49;84.86
69324;DHT22;56470;47.350;8.718;2024-01-25T07:39:03;11.47;85.00
69324;DHT22;56470;47.350;8.718;2024-01-25T07:41:29;11.43;85.32
69324;DHT22;56470;47.350;8.718;2024-01-25T07:43:55;11.39;85.35
69324;DHT22;56470;47.350;8.718;2024-01-25T07:46:21;11.40;85.45
69324;DHT22;56470;47.350;8.718;2024-01-25T07:48:47;11.43;85.39
69324;DHT22;56470;47.350;8.718;2024-01-25T07:51:13;11.43;85.28
69324;DHT22;56470;47.350;8.718;2024-01-25T07:53:38;11.40;85.24
69324;DHT22;56470;47.350;8.718;2024-01-25T07:56:06;11.37;85.48
69324;DHT22;56470;47.350;8.718;2024-01-25T07:58:32;11.40;85.09
69324;DHT22;56470;47.350;8.718;2024-01-25T08:00:57;11.36;85.37
69324;DHT22;56470;47.350;8.718;2024-01-25T08:03:22;11.42;85.26
69324;DHT22;56470;47.350;8.718;2024-01-25T08:05:48;11.40;85.27
69324;DHT22;56470;47.350;8.718;2024-01-25T08:08:13;11.43;85.32
69324;DHT22;56470;47.350;8.718;2024-01-25T08:10:38;11.42;85.26
69324;DHT22;56470;47.350;8.718;2024-01-25T08:13:04;11.46;85.27
69324;DHT22;56470;47.350;8.718;2024-01-25T08:15:29;11.47;85.24
69324;DHT22;56470;47.350;8.718;2024-01-25T08:17:54;11.53;85.10
69324;DHT22;56470;47.350;8.718;2024-01-25T08:20:19;11.53;85.09
69324;DHT22;56470;47.350;8.718;2024-01-25T08:22:45;11.57;85.06
69324;DHT22;56470;47.350;8.718;2024-01-25T08:25:11;11.56;85.02
69324;DHT22;56470;47.350;8.718;2024-01-25T08:27:39;11.61;85.00
69324;DHT22;56470;47.350;8.718;2024-01-25T08:30:05;11.63;84.87
69324;DHT22;56470;47.350;8.718;2024-01-25T08:32:30;11.64;84.87
69324;DHT22;56470;47.350;8.718;2024-01-25T08:34:56;11.69;84.78
69324;DHT22;56470;47.350;8.718;2024-01-25T08:37:21;11.67;84.79
69324;DHT22;56470;47.350;8.718;2024-01-25T08:39:46;11.71;84.73
69324;DHT22;56470;47.350;8.718;2024-01-25T08:42:16;11.75;84.65
69324;DHT22;56470;47.350;8.718;2024-01-25T08:44:41;11.73;84.68
69324;DHT22;56470;47.350;8.718;2024-01-25T08:47:14;11.77;84.57
69324;DHT22;56470;47.350;8.718;2024-01-25T08:49:39;11.78;84.53
69324;DHT22;56470;47.350;8.718;2024-01-25T08:52:04;11.78;84.51
69324;DHT22;56470;47.350;8.718;2024-01-25T08:54:30;11.81;84.46
69324;DHT22;56470;47.350;8.718;2024-01-25T08:56:56;11.80;84.55
69324;DHT22;56470;47.350;8.718;2024-01-25T08:59:21;11.80;84.45
69324;DHT22;56470;47.350;8.718;2024-01-25T09:01:47;11.84;84.46
69324;DHT22;56470;47.350;8.718;2024-01-25T09:04:12;11.80;84.44
69324;DHT22;56470;47.350;8.718;2024-01-25T09:06:38;11.81;84.44
69324;DHT22;56470;47.350;8.718;2024-01-25T09:09:04;11.75;84.49
69324;DHT22;56470;47.350;8.718;2024-01-25T09:11:30;11.73;84.47
69324;DHT22;56470;47.350;8.718;2024-01-25T09:13:56;11.74;84.41
69324;DHT22;56470;47.350;8.718;2024-01-25T09:16:21;11.75;84.39
69324;DHT22;56470;47.350;8.718;2024-01-25T09:18:47;11.74;84.37
69324;DHT22;56470;47.350;8.718;2024-01-25T09:21:13;11.77;84.19
69324;DHT22;56470;47.350;8.718;2024-01-25T09:23:39;11.77;84.26
69324;DHT22;56470;47.350;8.718;2024-01-25T09:26:05;11.77;84.33
69324;DHT22;56470;47.350;8.718;2024-01-25T09:28:30;11.74;84.33
69324;DHT22;56470;47.350;8.718;2024-01-25T09:30:55;11.77;84.31
69324;DHT22;56470;47.350;8.718;2024-01-25T09:33:21;11.78;84.24
69324;DHT22;56470;47.350;8.718;2024-01-25T09:35:46;11.82;84.15
69324;DHT22;56470;47.350;8.718;2024-01-25T09:38:13;11.82;84.21
69324;DHT22;56470;47.350;8.718;2024-01-25T09:40:38;11.85;84.21
69324;DHT22;56470;47.350;8.718;2024-01-25T09:43:04;11.89;84.21
69324;DHT22;56470;47.350;8.718;2024-01-25T09:45:30;11.89;84.03
69324;DHT22;56470;47.350;8.718;2024-01-25T09:47:56;11.91;84.04
69324;DHT22;56470;47.350;8.718;2024-01-25T09:50:21;11.89;84.07
69324;DHT22;56470;47.350;8.718;2024-01-25T09:52:52;11.88;84.05
69324;DHT22;56470;47.350;8.718;2024-01-25T09:55:22;11.91;84.03
69324;DHT22;56470;47.350;8.718;2024-01-25T09:57:53;11.91;84.07
69324;DHT22;56470;47.350;8.718;2024-01-25T10:00:19;11.94;84.07
69324;DHT22;56470;47.350;8.718;2024-01-25T10:02:47;11.91;84.13
69324;DHT22;56470;47.350;8.718;2024-01-25T10:05:13;11.91;84.14
69324;DHT22;56470;47.350;8.718;2024-01-25T10:07:40;11.95;84.18
69324;DHT22;56470;47.350;8.718;2024-01-25T10:10:07;11.98;84.10
69324;DHT22;56470;47.350;8.718;2024-01-25T10:12:32;11.99;84.05
69324;DHT22;56470;47.350;8.718;2024-01-25T10:14:58;12.01;84.03
69324;DHT22;56470;47.350;8.718;2024-01-25T10:17:23;12.01;84.12
69324;DHT22;56470;47.350;8.718;2024-01-25T10:19:49;12.04;84.05
69324;DHT22;56470;47.350;8.718;2024-01-25T10:22:14;12.05;84.15
69324;DHT22;56470;47.350;8.718;2024-01-25T10:24:40;12.06;83.97
69324;DHT22;56470;47.350;8.718;2024-01-25T10:27:07;12.08;84.01
69324;DHT22;56470;47.350;8.718;2024-01-25T10:29:34;12.09;83.95
69324;DHT22;56470;47.350;8.718;2024-01-25T10:32:00;12.14;84.00
69324;DHT22;56470;47.350;8.718;2024-01-25T10:34:26;12.14;83.90
69324;DHT22;56470;47.350;8.718;2024-01-25T10:36:52;12.14;83.95
69324;DHT22;56470;47.350;8.718;2024-01-25T10:39:17;12.15;83.89
69324;DHT22;56470;47.350;8.718;2024-01-25T10:41:45;12.18;83.79
69324;DHT22;56470;47.350;8.718;2024-01-25T10:44:15;12.19;83.86
69324;DHT22;56470;47.350;8.718;2024-01-25T10:46:41;12.23;83.81
69324;DHT22;56470;47.350;8.718;2024-01-25T10:49:07;12.28;83.76
69324;DHT22;56470;47.350;8.718;2024-01-25T10:51:33;12.25;83.73
69324;DHT22;56470;47.350;8.718;2024-01-25T10:53:59;12.26;83.70
69324;DHT22;56470;47.350;8.718;2024-01-25T10:56:25;12.28;83.56
69324;DHT22;56470;47.350;8.718;2024-01-25T10:58:50;12.28;83.73
69324;DHT22;56470;47.350;8.718;2024-01-25T11:01:16;12.33;83.71
69324;DHT22;56470;47.350;8.718;2024-01-25T11:03:45;12.36;83.68
69324;DHT22;56470;47.350;8.718;2024-01-25T11:06:12;12.42;83.59
69324;DHT22;56470;47.350;8.718;2024-01-25T11:08:38;12.46;83.63
69324;DHT22;56470;47.350;8.718;2024-01-25T11:11:07;12.49;83.53
69324;DHT22;56470;47.350;8.718;2024-01-25T11:13:34;12.56;83.66
69324;DHT22;56470;47.350;8.718;2024-01-25T11:16:17;12.61;83.56
69324;DHT22;56470;47.350;8.718;2024-01-25T11:18:52;12.67;83.33
69324;DHT22;56470;47.350;8.718;2024-01-25T11:21:40;12.76;83.25
69324;DHT22;56470;47.350;8.718;2024-01-25T11:24:21;12.81;83.07
69324;DHT22;56470;47.350;8.718;2024-01-25T11:26:47;12.84;83.06
69324;DHT22;56470;47.350;8.718;2024-01-25T11:29:16;12.85;82.89
69324;DHT22;56470;47.350;8.718;2024-01-25T11:31:45;12.87;82.79
69324;DHT22;56470;47.350;8.718;2024-01-25T11:34:11;12.87;82.82
69324;DHT22;56470;47.350;8.718;2024-01-25T11:36:37;12.85;82.76
69324;DHT22;56470;47.350;8.718;2024-01-25T11:39:03;12.88;82.81
69324;DHT22;56470;47.350;8.718;2024-01-25T11:41:30;12.89;82.74
69324;DHT22;56470;47.350;8.718;2024-01-25T11:43:56;12.89;82.71
69324;DHT22;56470;47.350;8.718;2024-01-25T11:46:22;12.91;82.71
69324;DHT22;56470;47.350;8.718;2024-01-25T11:48:47;12.92;82.60
69324;DHT22;56470;47.350;8.718;2024-01-25T11:51:13;12.92;82.68
69324;DHT22;56470;47.350;8.718;2024-01-25T11:53:38;12.94;82.61
69324;DHT22;56470;47.350;8.718;2024-01-25T11:56:09;12.98;82.59
69324;DHT22;56470;47.350;8.718;2024-01-25T11:58:37;13.04;82.35
69324;DHT22;56470;47.350;8.718;2024-01-25T12:01:03;13.06;82.32
69324;DHT22;56470;47.350;8.718;2024-01-25T12:03:33;13.06;82.30
69324;DHT22;56470;47.350;8.718;2024-01-25T12:05:58;13.11;82.22
69324;DHT22;56470;47.350;8.718;2024-01-25T12:08:24;13.11;82.27
69324;DHT22;56470;47.350;8.718;2024-01-25T12:10:49;13.12;82.29
69324;DHT22;56470;47.350;8.718;2024-01-25T12:13:16;13.14;82.18
69324;DHT22;56470;47.350;8.718;2024-01-25T12:15:42;13.15;82.13
69324;DHT22;56470;47.350;8.718;2024-01-25T12:18:07;13.19;82.20
69324;DHT22;56470;47.350;8.718;2024-01-25T12:20:35;13.20;82.10
69324;DHT22;56470;47.350;8.718;2024-01-25T12:23:00;13.23;82.01
69324;DHT22;56470;47.350;8.718;2024-01-25T12:25:26;13.26;82.02
69324;DHT22;56470;47.350;8.718;2024-01-25T12:27:53;13.29;81.88
69324;DHT22;56470;47.350;8.718;2024-01-25T12:30:18;13.32;81.83
69324;DHT22;56470;47.350;8.718;2024-01-25T12:32:44;13.35;81.71
69324;DHT22;56470;47.350;8.718;2024-01-25T12:35:09;13.42;81.62
69324;DHT22;56470;47.350;8.718;2024-01-25T12:37:34;13.39;81.43
69324;DHT22;56470;47.350;8.718;2024-01-25T12:40:00;13.43;81.32
69324;DHT22;56470;47.350;8.718;2024-01-25T12:42:28;13.40;81.26
69324;DHT22;56470;47.350;8.718;2024-01-25T12:44:54;13.40;81.25
69324;DHT22;56470;47.350;8.718;2024-01-25T12:47:20;13.44;81.31
69324;DHT22;56470;47.350;8.718;2024-01-25T12:49:45;13.43;81.28
69324;DHT22;56470;47.350;8.718;2024-01-25T12:52:11;13.49;81.27
69324;DHT22;56470;47.350;8.718;2024-01-25T12:54:37;13.49;81.17
69324;DHT22;56470;47.350;8.718;2024-01-25T12:57:03;13.51;80.85
69324;DHT22;56470;47.350;8.718;2024-01-25T12:59:29;13.46;80.97
69324;DHT22;56470;47.350;8.718;2024-01-25T13:01:54;13.46;81.05
69324;DHT22;56470;47.350;8.718;2024-01-25T13:04:20;13.46;81.09
69324;DHT22;56470;47.350;8.718;2024-01-25T13:06:46;13.49;81.02
69324;DHT22;56470;47.350;8.718;2024-01-25T13:09:11;13.50;80.94
69324;DHT22;56470;47.350;8.718;2024-01-25T13:11:37;13.51;80.85
69324;DHT22;56470;47.350;8.718;2024-01-25T13:14:02;13.53;80.84
69324;DHT22;56470;47.350;8.718;2024-01-25T13:16:28;13.54;80.83
69324;DHT22;56470;47.350;8.718;2024-01-25T13:18:53;13.51;80.77
69324;DHT22;56470;47.350;8.718;2024-01-25T13:21:18;13.53;80.73
69324;DHT22;56470;47.350;8.718;2024-01-25T13:23:43;13.53;80.70
69324;DHT22;56470;47.350;8.718;2024-01-25T13:26:09;13.51;80.70
69324;DHT22;56470;47.350;8.718;2024-01-25T13:28:34;13.54;80.73
69324;DHT22;56470;47.350;8.718;2024-01-25T13:30:59;13.56;80.69
69324;DHT22;56470;47.350;8.718;2024-01-25T13:33:25;13.54;80.74
69324;DHT22;56470;47.350;8.718;2024-01-25T13:35:50;13.54;80.73
69324;DHT22;56470;47.350;8.718;2024-01-25T13:38:15;13.56;80.66
69324;DHT22;56470;47.350;8.718;2024-01-25T13:40:42;13.51;80.60
69324;DHT22;56470;47.350;8.718;2024-01-25T13:43:07;13.42;80.72
69324;DHT22;56470;47.350;8.718;2024-01-25T13:45:32;13.42;80.95
69324;DHT22;56470;47.350;8.718;2024-01-25T13:47:58;13.44;81.05
69324;DHT22;56470;47.350;8.718;2024-01-25T13:50:23;13.44;81.02
69324;DHT22;56470;47.350;8.718;2024-01-25T13:52:48;13.47;81.08
69324;DHT22;56470;47.350;8.718;2024-01-25T13:55:14;13.46;81.04
69324;DHT22;56470;47.350;8.718;2024-01-25T13:57:39;13.51;81.00
69324;DHT22;56470;47.350;8.718;2024-01-25T14:00:05;13.50;81.04
69324;DHT22;56470;47.350;8.718;2024-01-25T14:02:31;13.47;81.00
69324;DHT22;56470;47.350;8.718;2024-01-25T14:04:57;13.53;81.07
69324;DHT22;56470;47.350;8.718;2024-01-25T14:07:22;13.54;80.99
69324;DHT22;56470;47.350;8.718;2024-01-25T14:09:47;13.53;80.96
69324;DHT22;56470;47.350;8.718;2024-01-25T14:12:13;13.51;81.05
69324;DHT22;56470;47.350;8.718;2024-01-25T14:14:38;13.43;81.07
69324;DHT22;56470;47.350;8.718;2024-01-25T14:17:04;13.40;80.99
69324;DHT22;56470;47.350;8.718;2024-01-25T14:19:29;13.36;81.15
69324;DHT22;56470;47.350;8.718;2024-01-25T14:21:55;13.38;81.34
69324;DHT22;56470;47.350;8.718;2024-01-25T14:24:21;13.32;81.23
69324;DHT22;56470;47.350;8.718;2024-01-25T14:26:46;13.30;81.40
69324;DHT22;56470;47.350;8.718;2024-01-25T14:29:13;13.30;81.41
69324;DHT22;56470;47.350;8.718;2024-01-25T14:31:39;13.33;81.34
69324;DHT22;56470;47.350;8.718;2024-01-25T14:34:04;13.36;81.42
69324;DHT22;56470;47.350;8.718;2024-01-25T14:36:29;13.42;81.36
69324;DHT22;56470;47.350;8.718;2024-01-25T14:38:54;13.42;81.31
69324;DHT22;56470;47.350;8.718;2024-01-25T14:41:20;13.44;81.35
69324;DHT22;56470;47.350;8.718;2024-01-25T14:43:45;13.47;81.35
69324;DHT22;56470;47.350;8.718;2024-01-25T14:46:10;13.49;81.29
69324;DHT22;56470;47.350;8.718;2024-01-25T14:48:36;13.44;81.38
69324;DHT22;56470;47.350;8.718;2024-01-25T14:51:01;13.42;81.10
69324;DHT22;56470;47.350;8.718;2024-01-25T14:53:27;13.39;81.12
69324;DHT22;56470;47.350;8.718;2024-01-25T14:55:53;13.42;81.07
69324;DHT22;56470;47.350;8.718;2024-01-25T14:58:18;13.39;80.98
69324;DHT22;56470;47.350;8.718;2024-01-25T15:00:50;13.40;81.01
69324;DHT22;56470;47.350;8.718;2024-01-25T15:03:15;13.40;81.01
69324;DHT22;56470;47.350;8.718;2024-01-25T15:05:41;13.44;80.92
69324;DHT22;56470;47.350;8.718;2024-01-25T15:08:06;13.43;80.88
69324;DHT22;56470;47.350;8.718;2024-01-25T15:10:31;13.39;80.57
69324;DHT22;56470;47.350;8.718;2024-01-25T15:12:57;13.38;80.79
69324;DHT22;56470;47.350;8.718;2024-01-25T15:15:25;13.39;80.79
69324;DHT22;56470;47.350;8.718;2024-01-25T15:17:53;13.43;80.78
69324;DHT22;56470;47.350;8.718;2024-01-25T15:20:18;13.42;80.61
69324;DHT22;56470;47.350;8.718;2024-01-25T15:22:44;13.44;80.54
69324;DHT22;56470;47.350;8.718;2024-01-25T15:25:09;13.43;80.32
69324;DHT22;56470;47.350;8.718;2024-01-25T15:27:34;13.42;80.30
69324;DHT22;56470;47.350;8.718;2024-01-25T15:30:00;13.39;80.30
69324;DHT22;56470;47.350;8.718;2024-01-25T15:32:25;13.36;80.30
69324;DHT22;56470;47.350;8.718;2024-01-25T15:34:50;13.33;80.14
69324;DHT22;56470;47.350;8.718;2024-01-25T15:37:16;13.29;80.07
69324;DHT22;56470;47.350;8.718;2024-01-25T15:39:41;13.20;79.91
69324;DHT22;56470;47.350;8.718;2024-01-25T15:42:09;13.19;80.12